Time;durP1;ratioP1;P1;durP2;ratioP2;P2;SDS_P1;SDS_P2;PMS_P1;PMS_P2;Temp;Humidity;BMP_temperature;BMP_pressure;BME280_temperature;BME280_humidity;BME280_pressure;Samples;Min_cycle;Max_cycle;Signal;HPM_P1;HPM_P2
2023/01/18 00:02:19;;;;;;;6.65;2.80;;;;;;;-142.75;100.00;76672.66;5019886;28;20028;-64
2023/01/18 00:04:44;;;;;;;5.50;2.50;;;;;;;-142.75;100.00;76666.75;5020454;28;20024;-67
2023/01/18 00:07:10;;;;;;;9.25;2.80;;;;;;;-142.75;100.00;76660.84;5019209;28;20487;-66
2023/01/18 00:09:35;;;;;;;4.75;2.38;;;;;;;-142.75;100.00;76654.94;5019660;28;20026;-67
2023/01/18 00:12:01;;;;;;;6.68;3.22;;;;;;;-142.75;100.00;76656.91;5019535;28;20025;-67
2023/01/18 00:14:26;;;;;;;9.63;2.65;;;;;;;-142.75;100.00;76647.06;5019995;28;20427;-65
2023/01/18 00:16:52;;;;;;;8.55;2.95;;;;;;;-142.75;100.00;76641.16;5019412;28;20022;-66
2023/01/18 00:19:18;;;;;;;6.43;2.47;;;;;;;-142.75;100.00;76649.03;5033174;28;20021;-64
2023/01/18 00:21:43;;;;;;;7.85;2.80;;;;;;;-142.75;100.00;76652.97;5038905;28;20055;-66
2023/01/18 00:24:13;;;;;;;6.35;3.22;;;;;;;-142.75;100.00;76647.06;5021381;28;20025;-66
2023/01/18 00:26:39;;;;;;;6.23;3.13;;;;;;;-142.75;100.00;76651.00;5020796;28;20031;-67
2023/01/18 00:29:05;;;;;;;5.68;3.00;;;;;;;-142.75;100.00;76631.31;5039566;28;20033;-66
2023/01/18 00:31:30;;;;;;;8.35;3.30;;;;;;;-142.75;100.00;76621.47;5039418;28;20151;-66
2023/01/18 00:33:55;;;;;;;4.80;2.70;;;;;;;-142.75;100.00;76635.25;5039358;28;20028;-62
2023/01/18 00:36:21;;;;;;;5.07;2.75;;;;;;;-142.75;100.00;76633.28;5032059;28;20021;-63
2023/01/18 00:38:50;;;;;;;6.28;2.72;;;;;;;-142.75;100.00;76629.34;5001889;28;20049;-65
2023/01/18 00:41:16;;;;;;;9.70;2.83;;;;;;;-142.75;100.00;76649.03;5019493;28;20029;-66
2023/01/18 00:43:41;;;;;;;4.38;2.83;;;;;;;-142.75;100.00;76643.13;5019623;28;20678;-67
2023/01/18 00:46:14;;;;;;;4.72;2.17;;;;;;;-142.75;100.00;76649.03;5019139;28;20018;-65
2023/01/18 00:48:41;;;;;;;6.10;2.70;;;;;;;-142.75;100.00;76649.03;5018705;28;20428;-63
2023/01/18 00:51:08;;;;;;;4.90;2.83;;;;;;;-142.75;100.00;76649.03;5018975;28;20037;-65
2023/01/18 00:53:34;;;;;;;7.93;3.03;;;;;;;-142.75;100.00;76652.97;5019074;28;20078;-67
2023/01/18 00:56:00;;;;;;;3.28;2.20;;;;;;;-142.75;100.00;76656.91;5019319;28;20511;-65
2023/01/18 00:58:25;;;;;;;10.15;3.33;;;;;;;-142.75;100.00;76680.53;5018602;28;20549;-66
2023/01/18 01:00:52;;;;;;;7.97;2.72;;;;;;;-142.75;100.00;76684.47;5001529;28;20017;-65
2023/01/18 01:03:18;;;;;;;4.73;2.60;;;;;;;-142.75;100.00;76715.97;5001295;28;20513;-63
2023/01/18 01:08:27;;;;;;;8.73;3.13;;;;;;;-142.75;100.00;76704.16;5018462;28;20125;-66
2023/01/18 01:11:04;;;;;;;7.53;3.00;;;;;;;-142.75;100.00;76708.09;5024927;28;20025;-67
2023/01/18 01:27:10;;;;;;;6.27;3.10;;;;;;;-142.75;100.00;76719.91;5021876;28;20087;-67
2023/01/18 01:29:36;;;;;;;5.53;2.97;;;;;;;-142.75;100.00;76759.28;5020693;28;20149;-67
2023/01/18 01:32:02;;;;;;;6.60;2.42;;;;;;;-142.75;100.00;76757.31;5029413;28;20067;-67
2023/01/18 01:34:28;;;;;;;;;;;;;;;-142.75;100.00;76786.84;5021609;28;20037;-67
2023/01/18 01:36:54;;;;;;;5.43;2.57;;;;;;;-142.75;100.00;76786.84;5022464;28;19975;-67
2023/01/18 01:39:19;;;;;;;6.15;2.70;;;;;;;-142.75;100.00;76788.81;5022927;28;20021;-67
2023/01/18 01:41:44;;;;;;;5.53;2.63;;;;;;;-142.75;100.00;76786.84;5004996;28;20024;-67
2023/01/18 01:44:19;;;;;;;5.72;2.63;;;;;;;-142.75;100.00;76782.91;5022608;28;20033;-66
2023/01/18 01:46:51;;;;;;;5.43;2.73;;;;;;;-142.75;100.00;76790.78;5021690;28;20029;-66
2023/01/18 01:49:33;;;;;;;4.80;2.50;;;;;;;-142.75;100.00;76788.81;5039834;28;20029;-66
2023/01/18 01:52:09;;;;;;;4.93;2.80;;;;;;;-142.75;100.00;76788.81;5042318;28;20029;-66
2023/01/18 01:54:48;;;;;;;6.57;3.07;;;;;;;-142.75;100.00;76777.00;5042324;28;20025;-67
2023/01/18 01:57:20;;;;;;;5.23;2.40;;;;;;;-142.75;100.00;76782.91;5023669;28;20592;-67
2023/01/18 01:59:56;;;;;;;4.03;2.23;;;;;;;-142.75;100.00;76780.94;5024715;28;20025;-66
2023/01/18 02:02:22;;;;;;;3.92;2.00;;;;;;;-142.75;100.00;76784.88;5024691;28;20471;-66
2023/01/18 02:04:52;;;;;;;3.70;2.35;;;;;;;-142.75;100.00;76765.19;5025564;28;20036;-67
2023/01/18 02:07:19;;;;;;;8.77;2.80;;;;;;;-142.75;100.00;76759.28;5021258;28;20124;-67
2023/01/18 02:09:44;;;;;;;4.43;2.50;;;;;;;-142.75;100.00;76745.50;5003235;28;20025;-67
2023/01/18 02:12:09;;;;;;;4.45;2.28;;;;;;;-142.75;100.00;76737.63;5021945;28;20039;-67
2023/01/18 02:14:35;;;;;;;6.57;2.50;;;;;;;-142.75;100.00;76737.63;5022262;28;20021;-67
2023/01/18 02:17:34;;;;;;;4.35;2.20;;;;;;;-142.75;100.00;76749.44;5021375;28;20022;-67
2023/01/18 02:20:24;;;;;;;5.67;2.90;;;;;;;-142.75;100.00;76739.59;5021857;28;20680;-67
2023/01/18 02:23:27;;;;;;;3.87;2.50;;;;;;;-142.75;100.00;76739.59;5022211;28;20094;-67
2023/01/18 02:25:58;;;;;;;6.03;2.60;;;;;;;-142.75;100.00;76739.59;5004421;28;20483;-67
2023/01/18 02:28:38;;;;;;;4.10;2.20;;;;;;;-142.75;100.00;76757.31;5003427;28;20064;-67
2023/01/18 02:31:17;;;;;;;4.57;2.33;;;;;;;-142.75;100.00;76743.53;5003856;28;20101;-67
2023/01/18 02:33:53;;;;;;;4.53;2.30;;;;;;;-142.75;100.00;76749.44;5021820;28;20429;-67
2023/01/18 02:36:25;;;;;;;5.20;2.60;;;;;;;-142.75;100.00;76747.47;5003191;28;20087;-67
2023/01/18 02:38:59;;;;;;;5.53;2.60;;;;;;;-142.75;100.00;76749.44;5021380;28;20650;-67
2023/01/18 02:47:09;;;;;;;7.37;2.43;;;;;;;-142.75;100.00;76737.63;5020284;28;20045;-67
2023/01/18 02:49:34;;;;;;;3.30;1.85;;;;;;;-142.75;100.00;76741.56;5021511;28;20426;-67
2023/01/18 02:52:07;;;;;;;5.93;2.80;;;;;;;-142.75;100.00;76741.56;5003535;28;20032;-67
2023/01/18 02:54:38;;;;;;;3.97;2.00;;;;;;;-142.75;100.00;76733.69;5021516;28;20029;-67
2023/01/18 02:57:11;;;;;;;5.37;2.80;;;;;;;-142.75;100.00;76733.69;5020555;28;20478;-67
2023/01/18 02:59:48;;;;;;;3.50;1.83;;;;;;;-142.75;100.00;76733.69;5021553;28;20083;-68
2023/01/18 03:02:18;;;;;;;4.03;1.60;;;;;;;-142.75;100.00;76741.56;5021007;28;20030;-64
2023/01/18 03:04:53;;;;;;;4.23;2.53;;;;;;;-142.75;100.00;76749.44;5021226;28;20112;-63
2023/01/18 03:07:31;;;;;;;4.23;2.27;;;;;;;-142.75;100.00;76739.59;5002682;28;20469;-66
2023/01/18 03:09:59;;;;;;;5.73;2.03;;;;;;;-142.75;100.00;76739.59;5020908;28;20029;-64
2023/01/18 03:12:52;;;;;;;5.73;2.73;;;;;;;-142.75;100.00;76741.56;5003275;28;20029;-65
2023/01/18 03:15:18;;;;;;;4.23;2.40;;;;;;;-142.75;100.00;76745.50;5021162;28;20555;-67
2023/01/18 03:17:56;;;;;;;4.45;2.20;;;;;;;-142.75;100.00;76723.84;5020313;28;20021;-64
2023/01/18 03:20:31;;;;;;;5.07;2.37;;;;;;;-142.75;100.00;76725.81;5020811;28;20021;-64
2023/01/18 03:25:56;;;;;;;3.90;1.70;;;;;;;-142.75;100.00;76743.53;5021484;28;20060;-64
2023/01/18 03:34:16;;;;;;;6.77;2.30;;;;;;;-142.75;100.00;76745.50;5021266;28;20394;-67
2023/01/18 03:36:48;;;;;;;5.20;1.97;;;;;;;-142.75;100.00;76755.34;5002114;28;20116;-67
2023/01/18 03:39:23;;;;;;;3.80;1.90;;;;;;;-142.75;100.00;76755.34;5020559;28;20671;-67
2023/01/18 03:41:53;;;;;;;4.47;2.10;;;;;;;-142.75;100.00;76757.31;5002853;28;20043;-67
2023/01/18 03:44:25;;;;;;;5.40;1.97;;;;;;;-142.75;100.00;76751.41;5020286;28;20025;-66
2023/01/18 03:46:50;;;;;;;5.73;2.40;;;;;;;-142.75;100.00;76767.16;5020090;28;21502;-67
2023/01/18 03:49:16;;;;;;;5.07;2.65;;;;;;;-142.75;100.00;76775.03;5039938;28;20123;-67
2023/01/18 03:52:00;;;;;;;4.00;1.83;;;;;;;-142.75;100.00;76755.34;5040217;28;20032;-65
2023/01/18 03:55:01;;;;;;;4.93;1.80;;;;;;;-142.75;100.00;76757.31;5040179;28;20037;-66
2023/01/18 03:57:45;;;;;;;4.23;2.00;;;;;;;-142.75;100.00;76769.13;5038862;28;20024;-67
2023/01/18 04:00:12;;;;;;;3.20;1.70;;;;;;;-142.75;100.00;76771.09;5019091;28;20407;-67
2023/01/18 04:02:38;;;;;;;4.90;2.00;;;;;;;-142.75;100.00;76769.13;5019885;28;20040;-66
2023/01/18 04:05:05;;;;;;;7.75;2.10;;;;;;;-142.75;100.00;76763.22;5002463;28;20037;-67
2023/01/18 04:07:31;;;;;;;4.60;1.80;;;;;;;-142.75;100.00;76753.38;5001585;28;20036;-65
2023/01/18 04:09:57;;;;;;;;;;;;;;;-142.75;100.00;76755.34;5020282;28;20534;-64
2023/01/18 04:12:22;;;;;;;4.63;1.87;;;;;;;-142.75;100.00;76761.25;5002449;28;19913;-64
2023/01/18 04:14:47;;;;;;;3.53;1.73;;;;;;;-142.75;100.00;76763.22;5020180;28;20036;-67
2023/01/18 04:17:13;;;;;;;6.03;2.13;;;;;;;-142.75;100.00;76767.16;5018874;28;20033;-66
2023/01/18 04:19:39;;;;;;;5.45;2.15;;;;;;;-142.75;100.00;76759.28;5002004;28;20364;-67
2023/01/18 04:22:05;;;;;;;;;;;;;;;-142.75;100.00;76761.25;5019997;28;20029;-67
2023/01/18 04:24:30;;;;;;;6.10;2.50;;;;;;;-142.75;100.00;76763.22;5019699;28;19920;-66
2023/01/18 04:26:55;;;;;;;6.93;2.10;;;;;;;-142.75;100.00;76769.13;5019063;28;20523;-64
2023/01/18 04:29:21;;;;;;;9.07;2.47;;;;;;;-142.75;100.00;76761.25;5019423;28;20760;-64
2023/01/18 04:31:46;;;;;;;6.28;1.92;;;;;;;-142.75;100.00;76757.31;5002353;28;20466;-66
2023/01/18 04:34:11;;;;;;;4.85;2.22;;;;;;;-142.75;100.00;76763.22;5019463;28;20087;-64
2023/01/18 04:36:37;;;;;;;4.95;2.20;;;;;;;-142.75;100.00;76763.22;5018679;28;20501;-64
2023/01/18 04:39:02;;;;;;;7.75;2.45;;;;;;;-142.75;100.00;76755.34;5019580;28;20025;-66
2023/01/18 04:41:28;;;;;;;3.72;1.83;;;;;;;-142.75;100.00;76765.19;5019036;28;20037;-67
2023/01/18 04:43:53;;;;;;;5.50;2.35;;;;;;;-142.75;100.00;76775.03;5019623;28;20076;-66
2023/01/18 04:46:18;;;;;;;7.53;2.35;;;;;;;-142.75;100.00;76782.91;5019148;28;20021;-67
2023/01/18 04:48:48;;;;;;;8.85;2.38;;;;;;;-142.75;100.00;76788.81;5000779;28;20025;-66
2023/01/18 04:51:14;;;;;;;6.53;2.00;;;;;;;-142.75;100.00;76804.53;5019162;28;20087;-66
2023/01/18 04:53:43;;;;;;;5.50;2.20;;;;;;;-142.75;100.00;76800.63;5019381;28;20025;-67
2023/01/18 04:56:09;;;;;;;6.17;2.37;;;;;;;-142.75;100.00;76796.69;5001569;28;20374;-66
2023/01/18 04:58:34;;;;;;;5.10;2.58;;;;;;;-142.75;100.00;76794.69;5018528;28;20876;-66
2023/01/18 05:01:01;;;;;;;5.15;2.60;;;;;;;-142.75;100.00;76798.66;5019213;28;20014;-66
2023/01/18 05:03:27;;;;;;;9.20;2.63;;;;;;;-142.75;100.00;76806.50;5027994;28;20076;-67
2023/01/18 05:05:53;;;;;;;5.97;2.65;;;;;;;-142.75;100.00;76786.84;5021472;28;20549;-67
2023/01/18 05:08:19;;;;;;;5.33;2.40;;;;;;;-142.75;100.00;76802.56;5020392;28;20025;-67
2023/01/18 05:10:44;;;;;;;4.97;2.30;;;;;;;-142.75;100.00;76810.44;5042821;28;20831;-66
2023/01/18 05:13:09;;;;;;;5.10;2.35;;;;;;;-142.75;100.00;76804.53;5043165;28;20032;-67
2023/01/18 05:15:35;;;;;;;11.73;2.65;;;;;;;-142.75;100.00;76806.50;5043109;28;20025;-67
2023/01/18 05:18:01;;;;;;;4.38;2.20;;;;;;;-142.75;100.00;76796.69;5042095;28;20052;-66
2023/01/18 05:20:26;;;;;;;6.20;2.53;;;;;;;-142.75;100.00;76810.44;5042816;28;20731;-67
2023/01/18 05:22:51;;;;;;;8.07;2.15;;;;;;;-142.75;100.00;76800.63;5043317;28;20039;-67
2023/01/18 05:25:17;;;;;;;5.88;2.28;;;;;;;-142.75;100.00;76798.66;5042686;28;20059;-69
2023/01/18 05:27:42;;;;;;;5.82;2.38;;;;;;;-142.75;100.00;76804.53;5042650;28;20033;-67
2023/01/18 05:30:09;;;;;;;9.55;2.67;;;;;;;-142.75;100.00;76830.13;5042502;28;20025;-67
2023/01/18 05:32:34;;;;;;;5.73;2.20;;;;;;;-142.75;100.00;76824.22;5025205;28;20545;-68
2023/01/18 05:35:00;;;;;;;7.40;2.45;;;;;;;-142.75;100.00;76806.50;5024650;28;20025;-68
2023/01/18 05:37:25;;;;;;;5.57;2.42;;;;;;;-142.75;100.00;76810.44;5041994;28;20111;-67
2023/01/18 05:39:50;;;;;;;7.25;2.90;;;;;;;-142.75;100.00;76816.34;5043196;28;20378;-67
2023/01/18 05:42:16;;;;;;;13.35;3.33;;;;;;;-142.75;100.00;76822.25;5024553;28;20761;-68
2023/01/18 05:44:41;;;;;;;9.18;2.42;;;;;;;-142.75;100.00;76828.16;5042239;28;20041;-67
2023/01/18 05:47:07;;;;;;;6.60;2.60;;;;;;;-142.75;100.00;76830.13;5041496;28;20033;-66
2023/01/18 05:49:32;;;;;;;9.38;2.30;;;;;;;-142.75;100.00;76820.28;5024345;28;20082;-68
2023/01/18 05:51:57;;;;;;;7.15;2.47;;;;;;;-142.75;100.00;76828.16;5034587;28;20462;-65
2023/01/18 05:54:23;;;;;;;8.73;2.30;;;;;;;-142.75;100.00;76838.00;5022701;28;20766;-67
2023/01/18 05:56:48;;;;;;;7.78;2.65;;;;;;;-142.75;100.00;76826.19;5021877;28;20038;-67
2023/01/18 05:59:14;;;;;;;6.57;2.60;;;;;;;-142.75;100.00;76836.03;5022665;28;20028;-67
2023/01/18 06:01:40;;;;;;;5.10;2.35;;;;;;;-142.75;100.00;76832.09;5022419;28;20060;-66
2023/01/18 06:04:06;;;;;;;6.93;2.57;;;;;;;-142.75;100.00;76843.91;5022272;28;20057;-67
2023/01/18 06:06:31;;;;;;;8.48;2.75;;;;;;;-142.75;100.00;76836.03;5021963;28;20455;-65
2023/01/18 06:08:57;;;;;;;5.60;2.20;;;;;;;-142.75;100.00;76830.13;5021535;28;20029;-65
2023/01/18 06:11:22;;;;;;;6.75;2.70;;;;;;;-142.75;100.00;76834.06;5021943;28;20044;-66
2023/01/18 06:13:48;;;;;;;8.32;2.60;;;;;;;-142.75;100.00;76822.25;5022650;28;20455;-66
2023/01/18 06:16:13;;;;;;;6.65;2.15;;;;;;;-142.75;100.00;76836.03;5004405;28;20029;-67
2023/01/18 06:18:40;;;;;;;6.55;2.78;;;;;;;-142.75;100.00;76834.06;5021158;28;20033;-65
2023/01/18 06:21:06;;;;;;;9.90;2.20;;;;;;;-142.75;100.00;76828.16;5029586;28;20108;-65
2023/01/18 06:23:32;;;;;;;9.03;2.67;;;;;;;-142.75;100.00;76826.19;5041808;28;20071;-67
2023/01/18 06:25:57;;;;;;;6.80;2.60;;;;;;;-142.75;100.00;76830.13;5023740;28;20040;-65
2023/01/18 06:28:23;;;;;;;7.88;2.30;;;;;;;-142.75;100.00;76820.28;5040779;28;20811;-66
2023/01/18 06:30:53;;;;;;;6.32;2.63;;;;;;;-142.75;100.00;76812.41;5041789;28;20132;-67
2023/01/18 06:33:19;;;;;;;6.07;2.63;;;;;;;-142.75;100.00;76824.22;5041627;28;20021;-67
2023/01/18 06:35:44;;;;;;;9.30;2.45;;;;;;;-142.75;100.00;76826.19;5023806;28;20051;-67
2023/01/18 06:38:10;;;;;;;5.47;2.72;;;;;;;-142.75;100.00;76838.00;5041025;28;20078;-66
2023/01/18 06:40:35;;;;;;;4.68;2.50;;;;;;;-142.75;100.00;76834.06;5041438;28;20548;-67
2023/01/18 06:43:01;;;;;;;8.10;2.88;;;;;;;-142.75;100.00;76839.97;5023259;28;20091;-67
2023/01/18 06:45:28;;;;;;;7.95;3.10;;;;;;;-142.75;100.00;76845.88;5023502;28;20106;-67
2023/01/18 06:47:53;;;;;;;4.77;2.10;;;;;;;-142.75;100.00;76847.84;5040982;28;20024;-66
2023/01/18 06:50:18;;;;;;;10.77;2.63;;;;;;;-142.75;100.00;76853.75;5023343;28;20065;-67
2023/01/18 06:52:44;;;;;;;5.72;2.30;;;;;;;-142.75;100.00;76865.56;5041292;28;20024;-67
2023/01/18 06:55:11;;;;;;;6.63;2.75;;;;;;;-142.75;100.00;76873.44;5041127;28;20470;-66
2023/01/18 06:57:36;;;;;;;7.03;2.83;;;;;;;-142.75;100.00;76879.34;5022444;28;20083;-65
2023/01/18 07:00:05;;;;;;;9.38;2.55;;;;;;;-142.75;100.00;76885.25;5023337;28;20033;-67
2023/01/18 07:02:31;;;;;;;7.27;2.90;;;;;;;-142.75;100.00;76885.25;5041356;28;20032;-67
2023/01/18 07:04:56;;;;;;;6.53;3.30;;;;;;;-142.75;100.00;76895.09;5040373;28;20107;-64
2023/01/18 07:07:22;;;;;;;6.03;3.28;;;;;;;-142.75;100.00;76873.44;5040256;28;20025;-67
2023/01/18 07:09:47;;;;;;;6.95;2.83;;;;;;;-142.75;100.00;76881.31;5041204;28;20032;-67
2023/01/18 07:12:12;;;;;;;8.43;2.72;;;;;;;-142.75;100.00;76885.25;5031676;22;20065;-66
2023/01/18 07:14:38;;;;;;;7.82;2.70;;;;;;;-142.75;100.00;76879.34;5001385;28;20678;-65
2023/01/18 07:17:03;;;;;;;5.78;2.85;;;;;;;-142.75;100.00;76877.38;5000561;28;20018;-65
2023/01/18 07:19:29;;;;;;;6.03;2.97;;;;;;;-142.75;100.00;76849.81;5001422;28;20021;-66
2023/01/18 07:21:54;;;;;;;5.53;3.00;;;;;;;-142.75;100.00;76861.63;5001523;28;20071;-66
2023/01/18 07:24:19;;;;;;;7.80;3.25;;;;;;;-142.75;100.00;76877.38;4983186;28;20057;-65
2023/01/18 07:26:45;;;;;;;7.65;3.20;;;;;;;-142.75;100.00;76875.41;5000660;28;20044;-67
2023/01/18 07:29:10;;;;;;;6.32;3.10;;;;;;;-142.75;100.00;76869.50;5000891;28;20506;-66
2023/01/18 07:31:37;;;;;;;9.05;3.45;;;;;;;-142.75;100.00;76867.53;4982802;28;20022;-66
2023/01/18 07:34:03;;;;;;;6.07;2.80;;;;;;;-142.75;100.00;76865.56;5000875;28;20056;-66
2023/01/18 07:36:28;;;;;;;8.68;3.38;;;;;;;-142.75;100.00;76873.44;5000437;28;20030;-65
2023/01/18 07:38:54;;;;;;;8.80;3.83;;;;;;;-142.75;100.00;76863.59;5000516;28;20053;-66
2023/01/18 07:41:21;;;;;;;6.00;3.20;;;;;;;-142.75;100.00;76871.47;5000466;28;20099;-65
2023/01/18 07:43:47;;;;;;;9.60;3.57;;;;;;;-142.75;100.00;76879.34;5000995;28;20025;-66
2023/01/18 07:46:17;;;;;;;9.38;4.60;;;;;;;-142.75;100.00;76881.31;5000548;28;20087;-67
2023/01/18 07:48:43;;;;;;;7.67;3.63;;;;;;;-142.75;100.00;76895.09;4982589;28;20049;-67
2023/01/18 07:51:09;;;;;;;9.40;3.93;;;;;;;-142.75;100.00;76901.00;5000408;28;20034;-66
2023/01/18 07:53:35;;;;;;;;;;;;;;;-142.75;100.00;76873.44;5001089;28;20030;-66
2023/01/18 07:56:03;;;;;;;7.10;3.37;;;;;;;-142.75;100.00;76881.31;5000433;28;19967;-66
2023/01/18 07:58:29;;;;;;;7.50;3.93;;;;;;;-142.75;100.00;76897.06;4999700;28;20044;-66
2023/01/18 08:00:54;;;;;;;9.25;4.25;;;;;;;-142.75;100.00;76879.34;5001156;28;20061;-66
2023/01/18 08:03:20;;;;;;;8.43;4.95;;;;;;;-142.75;100.00;76883.28;5000724;28;20073;-66
2023/01/18 08:05:46;;;;;;;9.70;4.47;;;;;;;-142.75;100.00;76881.31;5000881;28;20762;-66
2023/01/18 08:08:13;;;;;;;7.32;4.30;;;;;;;-142.75;100.00;76857.69;4999581;28;20041;-66
2023/01/18 08:10:40;;;;;;;8.40;4.23;;;;;;;-142.75;100.00;76853.75;4999963;28;20025;-66
2023/01/18 08:13:08;;;;;;;10.88;4.18;;;;;;;-142.75;100.00;76853.75;5000044;28;20140;-63
2023/01/18 08:15:34;;;;;;;10.93;4.83;;;;;;;-142.75;100.00;76841.94;5000016;28;20061;-67
2023/01/18 08:18:01;;;;;;;8.88;4.05;;;;;;;-142.75;100.00;76838.00;4999329;28;20496;-66
2023/01/18 08:20:27;;;;;;;8.23;3.73;;;;;;;-142.75;100.00;76814.38;5000217;28;20029;-67
2023/01/18 08:22:55;;;;;;;7.65;3.97;;;;;;;-142.75;100.00;76812.41;5000048;28;20088;-67
2023/01/18 08:25:22;;;;;;;7.00;3.97;;;;;;;-142.75;100.00;76800.63;5000078;28;20136;-63
2023/01/18 08:27:47;;;;;;;5.87;3.57;;;;;;;-142.75;100.00;76780.94;4999444;28;20030;-67
2023/01/18 08:30:13;;;;;;;10.68;4.15;;;;;;;-142.75;100.00;76731.72;4999915;28;20061;-67
2023/01/18 08:32:38;;;;;;;7.07;3.75;;;;;;;-142.75;100.00;76759.28;5000016;28;20029;-67
2023/01/18 08:35:03;;;;;;;8.55;3.95;;;;;;;-142.75;100.00;76755.34;4999901;28;20419;-66
2023/01/18 08:37:29;;;;;;;14.73;4.18;;;;;;;-142.75;100.00;76735.66;4999396;28;20030;-67
2023/01/18 08:39:54;;;;;;;9.52;4.28;;;;;;;-142.75;100.00;76735.66;5000147;28;20757;-66
2023/01/18 08:42:19;;;;;;;6.40;3.65;;;;;;;-142.75;100.00;76690.38;4999376;28;20627;-67
2023/01/18 08:44:47;;;;;;;6.63;3.03;;;;;;;-142.75;100.00;76633.28;4999170;28;20569;-67
2023/01/18 08:47:14;;;;;;;8.80;4.20;;;;;;;-142.75;100.00;76574.22;4998898;28;20021;-66
2023/01/18 08:49:39;;;;;;;7.57;3.47;;;;;;;-142.75;100.00;76534.84;4999737;28;20076;-67
2023/01/18 08:52:05;;;;;;;8.00;3.67;;;;;;;-142.75;100.00;76483.69;4999778;28;20095;-65
2023/01/18 08:54:30;;;;;;;8.13;3.65;;;;;;;-142.75;100.00;76469.91;4999532;28;20128;-67
2023/01/18 08:56:56;;;;;;;6.63;3.88;;;;;;;-142.75;100.00;76430.53;4998736;28;20091;-64
2023/01/18 08:59:22;;;;;;;8.82;3.35;;;;;;;-142.75;100.00;76432.50;4999626;28;20513;-64
2023/01/18 09:01:48;;;;;;;8.97;3.37;;;;;;;-142.75;100.00;76373.44;4999961;28;20507;-67
2023/01/18 09:04:13;;;;;;;7.32;3.45;;;;;;;-142.75;100.00;76379.34;4999618;28;20038;-67
2023/01/18 09:06:38;;;;;;;9.52;3.00;;;;;;;-142.75;100.00;76334.09;4998850;28;20103;-67
2023/01/18 09:09:04;;;;;;;5.78;2.95;;;;;;;-142.75;100.00;76330.16;4999099;28;20030;-64
2023/01/18 09:11:29;;;;;;;4.85;3.03;;;;;;;-142.75;100.00;76349.81;4981700;28;20033;-66
2023/01/18 09:13:55;;;;;;;5.45;2.80;;;;;;;-142.75;100.00;76316.38;5000124;28;20021;-66
2023/01/18 09:16:21;;;;;;;8.43;3.10;;;;;;;-142.75;100.00;76290.78;4999327;28;20061;-64
2023/01/18 09:18:49;;;;;;;6.47;3.45;;;;;;;-142.75;100.00;76263.22;4999109;28;20022;-66
2023/01/18 09:21:18;;;;;;;8.17;2.73;;;;;;;-142.75;100.00;76217.94;4999498;28;20030;-67
2023/01/18 09:23:44;;;;;;;6.90;3.43;;;;;;;-142.75;100.00;76267.16;4999341;28;20474;-67
2023/01/18 09:26:15;;;;;;;6.10;2.90;;;;;;;-142.75;100.00;76263.22;4999347;28;20033;-68
2023/01/18 09:28:46;;;;;;;8.87;3.07;;;;;;;-142.75;100.00;76251.41;4998828;28;20132;-67
2023/01/18 09:31:11;;;;;;;6.77;2.83;;;;;;;-142.75;100.00;76257.31;4998775;28;20030;-66
2023/01/18 09:33:38;;;;;;;8.80;2.88;;;;;;;-142.75;100.00;76277.00;4999451;28;20591;-66
2023/01/18 09:36:08;;;;;;;7.30;3.63;;;;;;;-142.75;100.00;76275.03;4999172;28;20068;-64
2023/01/18 09:38:35;;;;;;;5.80;2.93;;;;;;;-142.75;100.00;76306.53;4998255;28;20025;-67
2023/01/18 09:41:01;;;;;;;5.30;2.70;;;;;;;-142.75;100.00;76334.09;4999019;28;20079;-67
2023/01/18 09:43:33;;;;;;;5.18;2.67;;;;;;;-142.75;100.00;76312.44;4999083;28;20026;-67
2023/01/18 09:45:58;;;;;;;7.93;3.57;;;;;;;-142.75;100.00;76300.63;4999037;28;20484;-65
2023/01/18 09:48:38;;;;;;;4.75;2.50;;;;;;;-142.75;100.00;76298.66;4998499;28;20032;-66
2023/01/18 09:51:11;;;;;;;4.80;2.80;;;;;;;-142.75;100.00;76296.69;4998741;28;20060;-67
2023/01/18 09:53:36;;;;;;;6.70;2.70;;;;;;;-142.75;100.00;76298.66;4999180;28;20105;-66
2023/01/18 09:56:15;;;;;;;6.95;2.95;;;;;;;-142.75;100.00;76351.81;5002174;28;20824;-67
2023/01/18 09:59:08;;;;;;;6.97;3.03;;;;;;;-142.75;100.00;76322.28;5002255;28;20601;-67
2023/01/18 10:01:34;;;;;;;6.60;2.60;;;;;;;-142.75;100.00;76284.88;4984840;28;20021;-67
2023/01/18 10:04:06;;;;;;;;;;;;;;;-142.75;100.00;76259.28;5002934;28;20053;-68
2023/01/18 10:06:42;;;;;;;5.10;2.23;;;;;;;-142.75;100.00;76196.31;4984720;28;20295;-64
2023/01/18 10:09:16;;;;;;;7.10;2.58;;;;;;;-142.75;100.00;76168.75;5002379;28;20364;-67
2023/01/18 10:12:04;;;;;;;7.53;2.83;;;;;;;-142.75;100.00;76105.75;5002022;28;20085;-65
2023/01/18 10:15:01;;;;;;;5.85;2.45;;;;;;;-142.75;99.09;76072.31;5002472;28;20026;-66
2023/01/18 10:17:38;;;;;;;4.28;2.47;;;;;;;-142.75;96.35;76046.72;4976729;28;20049;-66
2023/01/18 10:20:51;;;;;;;4.63;2.25;;;;;;;-142.75;94.63;76015.22;4984946;28;20018;-66
2023/01/18 10:23:29;;;;;;;5.27;2.30;;;;;;;-142.75;93.55;76064.44;4941261;29;20043;-67
2023/01/18 10:26:02;;;;;;;4.60;2.03;;;;;;;-142.75;93.54;76025.06;4999542;28;20096;-67
2023/01/18 10:28:34;;;;;;;6.15;2.50;;;;;;;-142.75;90.79;75999.47;4983757;28;20034;-67
2023/01/18 10:31:28;;;;;;;7.95;2.55;;;;;;;-142.75;90.91;75987.66;5002033;28;20520;-66
2023/01/18 10:33:57;;;;;;;6.57;2.22;;;;;;;-142.75;89.26;76013.25;4993995;28;20045;-67
2023/01/18 10:36:40;;;;;;;3.38;1.92;;;;;;;-142.75;88.09;75954.22;5002050;28;20125;-66
2023/01/18 10:39:35;;;;;;;8.00;2.45;;;;;;;-142.75;87.34;75942.41;5002116;28;20644;-67
2023/01/18 10:42:03;;;;;;;4.47;2.50;;;;;;;-142.75;87.10;75962.09;5001372;28;20263;-67
2023/01/18 10:44:28;;;;;;;5.53;2.28;;;;;;;-142.75;85.77;75934.53;5001773;28;20034;-67
2023/01/18 10:46:59;;;;;;;4.93;2.15;;;;;;;-142.75;85.96;75979.78;5001432;28;20061;-67
2023/01/18 10:49:43;;;;;;;5.95;2.33;;;;;;;-142.75;87.55;76030.97;5001635;28;20533;-66
2023/01/18 10:52:24;;;;;;;4.70;2.00;;;;;;;-142.75;88.60;76023.09;5001638;28;20076;-67
2023/01/18 10:55:02;;;;;;;5.35;2.03;;;;;;;-142.75;88.54;75960.13;5002184;28;20083;-67
2023/01/18 10:57:30;;;;;;;5.80;2.08;;;;;;;-142.75;85.71;75944.38;5000865;28;20030;-66
2023/01/18 10:59:58;;;;;;;7.80;2.40;;;;;;;-142.75;86.11;75928.63;5001657;28;20025;-64
2023/01/18 11:02:29;;;;;;;6.10;2.55;;;;;;;-142.75;85.61;75934.53;5001334;28;20030;-68
2023/01/18 11:05:03;;;;;;;4.18;2.08;;;;;;;-142.75;85.48;75910.91;4984261;28;20018;-68
2023/01/18 11:07:29;;;;;;;5.78;2.75;;;;;;;-142.75;84.36;75906.97;4999880;28;20361;-66
2023/01/18 11:09:58;;;;;;;6.30;2.35;;;;;;;-142.75;83.99;75912.88;5001527;28;20041;-67
2023/01/18 11:12:46;;;;;;;4.47;2.13;;;;;;;-142.75;84.52;75918.78;5001185;28;20026;-66
2023/01/18 11:15:14;;;;;;;8.27;2.38;;;;;;;-142.75;83.21;75901.06;5001577;28;20018;-67
2023/01/18 11:17:43;;;;;;;3.72;2.13;;;;;;;-142.75;82.04;75879.41;5000578;28;20731;-67
2023/01/18 11:20:18;;;;;;;9.73;2.40;;;;;;;-142.75;82.06;75932.56;5001065;28;20029;-67
2023/01/18 11:22:57;;;;;;;6.80;1.90;;;;;;;-142.75;84.11;75964.03;5001309;28;20488;-67
2023/01/18 11:25:25;;;;;;;6.78;2.10;;;;;;;-142.75;85.26;75997.50;5000945;28;20026;-66
2023/01/18 11:27:50;;;;;;;5.15;2.00;;;;;;;-142.75;87.95;76003.41;5000665;28;20872;-67
2023/01/18 11:30:21;;;;;;;6.35;2.30;;;;;;;-142.75;86.11;75946.34;5000652;28;20109;-66
2023/01/18 11:32:46;;;;;;;5.38;2.00;;;;;;;-142.75;85.59;75918.78;5001163;28;20136;-68
2023/01/18 11:35:30;;;;;;;8.07;2.33;;;;;;;-142.75;84.51;75869.56;5000844;28;20037;-67
2023/01/18 11:38:01;;;;;;;5.50;1.95;;;;;;;-142.75;83.98;75908.94;5000200;28;20020;-66
2023/01/18 11:40:29;;;;;;;4.93;1.65;;;;;;;-142.75;84.63;75920.75;5000670;28;20025;-67
2023/01/18 11:43:21;;;;;;;6.07;1.85;;;;;;;-142.75;83.71;75865.63;5001213;28;20030;-67
2023/01/18 11:46:17;;;;;;;3.22;1.27;;;;;;;-142.75;84.23;75906.97;5001012;28;20686;-66
2023/01/18 11:48:45;;;;;;;5.75;1.80;;;;;;;-142.75;84.26;75922.72;5000049;28;20070;-67
2023/01/18 11:51:15;;;;;;;6.90;1.67;;;;;;;-142.75;86.02;75962.09;5000274;28;20025;-67
2023/01/18 11:54:11;;;;;;;4.22;1.45;;;;;;;-142.75;84.53;75928.63;5000691;28;20400;-66